Time;durP1;ratioP1;P1;durP2;ratioP2;P2;SDS_P1;SDS_P2;PMS_P1;PMS_P2;Temp;Humidity;BMP_temperature;BMP_pressure;BME280_temperature;BME280_humidity;BME280_pressure;Samples;Min_cycle;Max_cycle;Signal;HPM_P1;HPM_P2
2023/05/22 00:01:21;;;;;;;309.20;33.10;;;;;;;17.53;90.89;97743.16;4170943;28;20707;-83
2023/05/22 00:03:24;;;;;;;331.50;38.27;;;;;;;17.48;91.10;97741.94;4153799;28;20638;-83
2023/05/22 00:05:27;;;;;;;341.80;38.03;;;;;;;17.45;90.31;97736.16;4164388;28;20671;-83
2023/05/22 00:07:30;;;;;;;258.53;36.83;;;;;;;17.41;90.13;97743.56;4167625;28;20636;-83
2023/05/22 00:09:33;;;;;;;284.03;38.07;;;;;;;17.38;91.24;97740.41;4171695;28;20981;-83
2023/05/22 00:11:38;;;;;;;279.37;39.93;;;;;;;17.37;91.38;97736.94;4185368;28;20677;-83
2023/05/22 00:13:41;;;;;;;233.47;41.40;;;;;;;17.37;90.87;97744.03;4170541;28;20733;-83
2023/05/22 00:15:44;;;;;;;242.83;35.43;;;;;;;17.36;90.87;97734.47;4203176;28;20745;-83
2023/05/22 00:17:47;;;;;;;273.87;38.80;;;;;;;17.37;90.94;97738.75;4172856;28;22257;-83
2023/05/22 00:19:52;;;;;;;229.87;36.87;;;;;;;17.37;91.19;97734.31;4170167;28;20678;-83
2023/05/22 00:21:55;;;;;;;236.07;36.60;;;;;;;17.37;92.00;97744.84;4155597;28;20626;-83
2023/05/22 00:23:58;;;;;;;325.33;38.20;;;;;;;17.38;91.12;97737.75;4149869;28;20993;-83
2023/05/22 00:26:01;;;;;;;312.73;41.97;;;;;;;17.36;91.61;97734.47;4169300;28;20659;-83
2023/05/22 00:28:06;;;;;;;319.17;37.80;;;;;;;17.34;91.90;97733.81;4172226;28;20636;-83
2023/05/22 00:30:10;;;;;;;225.97;35.30;;;;;;;17.28;90.79;97732.59;4165859;28;20677;-83
2023/05/22 00:32:13;;;;;;;275.27;36.47;;;;;;;17.26;92.19;97736.34;4167928;28;21021;-83
2023/05/22 00:34:16;;;;;;;265.03;41.10;;;;;;;17.20;91.17;97724.66;4159476;28;20650;-83
2023/05/22 00:36:19;;;;;;;282.10;37.47;;;;;;;17.20;91.13;97735.19;4167600;28;21018;-83
2023/05/22 00:38:31;;;;;;;344.57;41.43;;;;;;;17.19;91.32;97738.75;4169925;28;20644;-83
2023/05/22 00:40:34;;;;;;;272.13;37.27;;;;;;;17.18;92.28;97738.91;4167556;28;21243;-83
2023/05/22 00:42:37;;;;;;;323.40;39.77;;;;;;;17.17;91.41;97739.88;4171730;28;20646;-83
2023/05/22 00:44:41;;;;;;;282.87;39.23;;;;;;;17.14;91.23;97737.59;4170956;28;20735;-83
2023/05/22 00:46:44;;;;;;;349.50;40.53;;;;;;;17.15;92.30;97731.31;4166959;28;20639;-83
2023/05/22 00:48:48;;;;;;;289.17;36.30;;;;;;;17.11;91.80;97732.63;4161103;28;20673;-83
2023/05/22 00:50:51;;;;;;;311.83;39.57;;;;;;;17.08;92.38;97730.28;4157951;28;20645;-83
2023/05/22 00:52:55;;;;;;;318.57;41.03;;;;;;;17.06;92.52;97732.22;4173070;28;20638;-82
2023/05/22 00:54:59;;;;;;;331.23;42.00;;;;;;;17.02;91.63;97731.72;4172625;28;20647;-83
2023/05/22 00:57:03;;;;;;;270.37;34.27;;;;;;;17.00;92.58;97733.69;4153194;28;20639;-83
2023/05/22 00:59:06;;;;;;;329.37;41.63;;;;;;;16.97;92.23;97727.88;4153316;28;21040;-83
2023/05/22 01:01:10;;;;;;;332.43;40.70;;;;;;;16.96;92.26;97730.66;4169909;28;20646;-83
2023/05/22 01:03:14;;;;;;;307.07;47.80;;;;;;;16.95;91.58;97729.03;4159231;28;20643;-83
2023/05/22 01:05:18;;;;;;;281.40;41.67;;;;;;;16.94;92.52;97738.72;4154265;28;20632;-83
2023/05/22 01:07:22;;;;;;;320.00;39.43;;;;;;;16.93;92.42;97739.72;4168374;28;20634;-83
2023/05/22 01:09:25;;;;;;;285.30;36.87;;;;;;;16.93;93.22;97742.34;4168426;28;21258;-83
2023/05/22 01:11:33;;;;;;;312.03;35.13;;;;;;;16.92;92.95;97742.50;4157807;28;21253;-83
2023/05/22 01:13:41;;;;;;;353.33;40.47;;;;;;;16.89;92.02;97735.72;4167280;28;21020;-83
2023/05/22 01:15:50;;;;;;;332.47;41.87;;;;;;;16.87;91.72;97737.69;4167990;28;22013;-83
2023/05/22 01:18:04;;;;;;;278.93;41.43;;;;;;;16.86;91.96;97749.19;4164097;28;20636;-83
2023/05/22 01:20:13;;;;;;;347.27;42.27;;;;;;;16.82;93.33;97734.66;4170438;28;21263;-83
2023/05/22 01:22:27;;;;;;;300.97;39.97;;;;;;;16.80;91.40;97738.44;4170985;28;20637;-83
2023/05/22 01:24:53;;;;;;;354.73;41.93;;;;;;;16.78;93.43;97732.47;4156348;28;20660;-83
2023/05/22 01:27:13;;;;;;;320.03;39.70;;;;;;;16.75;91.89;97743.34;4169884;28;21194;-83
2023/05/22 01:29:34;;;;;;;359.03;40.30;;;;;;;16.73;92.52;97734.75;4172856;28;20647;-83
2023/05/22 01:31:41;;;;;;;316.33;44.53;;;;;;;16.71;91.94;97737.53;4167942;28;21023;-83
2023/05/22 01:33:46;;;;;;;402.67;43.97;;;;;;;16.68;91.97;97731.75;4182798;28;20639;-83
2023/05/22 01:35:52;;;;;;;351.07;41.20;;;;;;;16.63;91.96;97734.84;4190656;28;20634;-83
2023/05/22 01:37:57;;;;;;;334.90;42.73;;;;;;;16.62;91.74;97745.50;4174705;28;20626;-83
2023/05/22 01:40:00;;;;;;;356.70;41.10;;;;;;;16.60;91.29;97745.66;4160053;28;20750;-83
2023/05/22 01:42:05;;;;;;;334.93;43.80;;;;;;;16.58;91.49;97746.78;4170538;28;20645;-83
2023/05/22 01:44:09;;;;;;;262.87;40.60;;;;;;;16.55;93.02;97747.06;4155988;28;20632;-82
2023/05/22 01:46:12;;;;;;;352.87;42.13;;;;;;;16.53;92.04;97757.75;4176299;28;20623;-83
2023/05/22 01:48:16;;;;;;;332.53;42.60;;;;;;;16.51;93.58;97761.53;4170664;28;20727;-83
2023/05/22 01:50:20;;;;;;;354.23;38.57;;;;;;;16.48;92.96;97756.56;4170895;28;20618;-83
2023/05/22 01:52:29;;;;;;;354.33;38.23;;;;;;;16.48;92.63;97756.56;4162322;28;21024;-83
2023/05/22 01:54:37;;;;;;;362.70;43.83;;;;;;;16.47;92.08;97756.72;4170516;28;20653;-83
2023/05/22 01:56:47;;;;;;;299.37;40.37;;;;;;;16.46;93.22;97757.69;4170984;28;20632;-83
2023/05/22 01:58:56;;;;;;;380.17;42.87;;;;;;;16.45;92.03;97766.56;4159048;28;21215;-83
2023/05/22 02:01:01;;;;;;;313.37;41.20;;;;;;;16.41;91.79;97767.84;4167787;28;21322;-83
2023/05/22 02:03:07;;;;;;;276.63;39.27;;;;;;;16.32;93.08;97766.91;4174301;28;20730;-83
2023/05/22 02:05:12;;;;;;;382.07;40.33;;;;;;;16.22;91.31;97758.25;4158942;28;20628;-83
2023/05/22 02:07:17;;;;;;;309.40;42.40;;;;;;;16.17;91.80;97757.00;4170764;28;20638;-83
2023/05/22 02:09:21;;;;;;;350.80;36.37;;;;;;;16.12;91.23;97759.25;4177156;28;20747;-83
2023/05/22 02:11:26;;;;;;;351.13;43.90;;;;;;;16.08;93.06;97763.97;4204130;28;20731;-83
2023/05/22 02:13:29;;;;;;;316.30;39.57;;;;;;;16.07;93.53;97766.75;4174228;28;20644;-83
2023/05/22 02:15:32;;;;;;;360.30;44.90;;;;;;;16.04;91.46;97762.63;4177298;28;21014;-83
2023/05/22 02:17:39;;;;;;;332.57;39.33;;;;;;;16.03;93.82;97760.13;4167396;28;20670;-83
2023/05/22 02:19:43;;;;;;;326.33;41.63;;;;;;;16.01;93.92;97769.94;4156884;28;20646;-83
2023/05/22 02:21:48;;;;;;;381.83;42.37;;;;;;;15.98;91.71;97764.97;4175872;28;20742;-83
2023/05/22 02:23:51;;;;;;;337.60;40.77;;;;;;;16.01;93.62;97769.94;4170640;28;20643;-83
2023/05/22 02:25:55;;;;;;;358.40;41.90;;;;;;;16.01;94.06;97767.31;4180903;28;20642;-83
2023/05/22 02:27:58;;;;;;;376.37;45.47;;;;;;;16.01;93.16;97766.50;4171518;28;20645;-83
2023/05/22 02:30:01;;;;;;;292.87;37.43;;;;;;;16.01;93.98;97764.69;4166518;28;21081;-83
2023/05/22 02:32:05;;;;;;;352.20;44.23;;;;;;;16.01;93.76;97762.06;4153680;28;20957;-83
2023/05/22 02:34:08;;;;;;;364.80;43.20;;;;;;;16.01;94.30;97763.88;4170974;28;20670;-83
2023/05/22 02:36:13;;;;;;;355.63;43.40;;;;;;;16.01;93.52;97764.69;4172206;28;20653;-83
2023/05/22 02:38:17;;;;;;;371.83;40.63;;;;;;;15.99;93.76;97763.19;4159192;28;20687;-83
2023/05/22 02:40:20;;;;;;;353.07;40.80;;;;;;;15.95;92.86;97762.69;4158311;28;20670;-83
2023/05/22 02:42:25;;;;;;;380.73;43.83;;;;;;;15.94;94.40;97766.28;4173040;28;20984;-83
2023/05/22 02:44:29;;;;;;;352.77;44.53;;;;;;;15.91;92.44;97765.75;4157866;28;20640;-83
2023/05/22 02:46:32;;;;;;;352.67;37.50;;;;;;;15.87;91.94;97767.81;4178531;28;21290;-82
2023/05/22 02:48:35;;;;;;;352.53;43.00;;;;;;;15.85;92.25;97766.31;4158256;28;20630;-83
2023/05/22 02:50:38;;;;;;;351.70;42.97;;;;;;;15.82;92.80;97759.53;4176633;28;20677;-83
2023/05/22 02:52:44;;;;;;;362.17;40.93;;;;;;;15.81;94.06;97764.94;4170905;28;20645;-82
2023/05/22 02:54:48;;;;;;;350.33;38.93;;;;;;;15.79;91.82;97762.44;4158408;28;20635;-83
2023/05/22 02:56:51;;;;;;;376.53;43.00;;;;;;;15.79;93.29;97772.97;4168680;28;20649;-83
2023/05/22 02:58:54;;;;;;;355.77;42.23;;;;;;;15.77;92.50;97764.41;4189543;28;20634;-83
2023/05/22 03:00:58;;;;;;;351.73;46.00;;;;;;;15.72;93.07;97771.88;4157854;28;20688;-83
2023/05/22 03:03:01;;;;;;;350.17;38.67;;;;;;;15.65;92.00;97764.72;4159964;28;20638;-83
2023/05/22 03:05:05;;;;;;;351.30;42.97;;;;;;;15.60;92.43;97762.50;4170790;28;20634;-83
2023/05/22 03:07:09;;;;;;;321.73;38.90;;;;;;;15.59;92.32;97760.88;4201560;28;20665;-83
2023/05/22 03:09:12;;;;;;;351.93;43.63;;;;;;;15.59;93.39;97766.13;4156479;28;20635;-83
2023/05/22 03:11:16;;;;;;;354.47;43.77;;;;;;;15.59;93.80;97763.50;4172977;28;20637;-83
2023/05/22 03:13:20;;;;;;;350.97;41.13;;;;;;;15.61;92.26;97766.00;4159387;28;21394;-82
2023/05/22 03:15:23;;;;;;;361.57;38.17;;;;;;;15.62;92.94;97765.84;4197181;28;20645;-83
2023/05/22 03:17:30;;;;;;;394.17;44.83;;;;;;;15.63;93.79;97769.28;4171538;28;20638;-83
2023/05/22 03:19:34;;;;;;;351.93;44.87;;;;;;;15.59;93.74;97765.28;4170565;28;20674;-83
2023/05/22 03:21:37;;;;;;;367.27;45.03;;;;;;;15.57;93.85;97773.34;4155578;28;20659;-82
2023/05/22 03:23:42;;;;;;;356.57;44.80;;;;;;;15.58;94.39;97769.72;4169783;28;20655;-83
2023/05/22 03:25:45;;;;;;;356.60;45.77;;;;;;;15.55;94.29;97775.25;4169825;28;20640;-83
2023/05/22 03:27:49;;;;;;;352.27;45.27;;;;;;;15.55;93.76;97769.19;4171419;28;21152;-82
2023/05/22 03:29:53;;;;;;;354.50;42.37;;;;;;;15.54;93.12;97771.97;4173048;28;20651;-83
2023/05/22 03:31:58;;;;;;;392.87;44.53;;;;;;;15.53;93.18;97771.13;4173946;28;20668;-83
2023/05/22 03:34:04;;;;;;;352.13;48.40;;;;;;;15.54;93.40;97770.16;4159243;28;20626;-83
2023/05/22 03:36:08;;;;;;;370.17;45.27;;;;;;;15.54;93.56;97772.78;4202139;28;20637;-83
2023/05/22 03:38:12;;;;;;;362.53;46.67;;;;;;;15.54;93.80;97771.97;4154409;28;21213;-86
2023/05/22 03:40:15;;;;;;;353.10;44.50;;;;;;;15.52;92.96;97766.84;4145934;28;20634;-85
2023/05/22 03:42:19;;;;;;;424.97;44.33;;;;;;;15.51;93.91;97762.53;4153530;28;21547;-85
2023/05/22 03:44:24;;;;;;;356.80;39.27;;;;;;;15.49;95.08;97764.50;4122265;28;20640;-85
2023/05/22 03:46:27;;;;;;;371.70;42.83;;;;;;;15.49;95.05;97763.69;4141169;28;21263;-85
2023/05/22 03:48:31;;;;;;;354.93;42.53;;;;;;;15.51;94.93;97767.00;4173706;28;20636;-85
2023/05/22 03:50:34;;;;;;;357.30;40.17;;;;;;;15.54;93.56;97767.53;4171201;28;20633;-85
2023/05/22 03:52:37;;;;;;;355.77;45.50;;;;;;;15.56;93.27;97774.31;4172625;28;20658;-85
2023/05/22 03:54:40;;;;;;;360.27;45.23;;;;;;;15.58;95.69;97777.59;4185965;28;20641;-85
2023/05/22 03:56:43;;;;;;;356.13;49.23;;;;;;;15.59;94.48;97781.06;4168150;28;21180;-85
2023/05/22 03:58:46;;;;;;;389.47;47.17;;;;;;;15.60;95.26;97782.72;4178035;28;20671;-85
2023/05/22 04:00:51;;;;;;;395.60;46.83;;;;;;;15.58;94.80;97772.34;4171320;28;20634;-85
2023/05/22 04:02:57;;;;;;;351.87;47.57;;;;;;;15.59;94.12;97776.66;4159094;28;21234;-85
2023/05/22 04:05:00;;;;;;;381.10;42.33;;;;;;;15.61;94.70;97782.59;4175449;28;21276;-85
2023/05/22 04:07:06;;;;;;;383.37;48.13;;;;;;;15.60;94.08;97794.06;4174095;28;20662;-85
2023/05/22 04:09:11;;;;;;;356.10;47.50;;;;;;;15.61;94.08;97795.72;4170424;28;20634;-85
2023/05/22 04:11:14;;;;;;;352.27;43.53;;;;;;;15.59;94.35;97797.69;4173538;28;20643;-85
2023/05/22 04:13:17;;;;;;;379.83;37.97;;;;;;;15.61;94.85;97803.63;4166472;28;20677;-85
2023/05/22 04:15:22;;;;;;;391.97;43.10;;;;;;;15.60;94.51;97801.94;4164756;28;21296;-85
2023/05/22 04:17:31;;;;;;;352.77;39.30;;;;;;;15.59;94.54;97808.19;4167574;28;20634;-85
2023/05/22 04:19:34;;;;;;;355.03;41.57;;;;;;;15.63;94.36;97814.81;4168569;28;21219;-85
2023/05/22 04:21:38;;;;;;;353.80;42.93;;;;;;;15.70;93.51;97810.66;4154706;28;20657;-86
2023/05/22 04:23:42;;;;;;;387.97;37.67;;;;;;;15.73;95.72;97813.00;4172179;28;20769;-85
2023/05/22 04:25:46;;;;;;;351.43;38.47;;;;;;;15.75;94.77;97816.31;4173893;28;20661;-86
2023/05/22 04:27:50;;;;;;;375.67;42.20;;;;;;;15.80;95.33;97821.13;4168852;28;20652;-86
2023/05/22 04:29:54;;;;;;;354.00;36.90;;;;;;;15.77;93.01;97817.00;4155738;28;21198;-85
2023/05/22 04:32:00;;;;;;;351.57;37.23;;;;;;;15.71;92.85;97814.94;4187859;28;20624;-85
2023/05/22 04:34:04;;;;;;;354.23;45.80;;;;;;;15.68;92.73;97823.13;4166776;28;20641;-85
2023/05/22 04:36:09;;;;;;;379.63;42.57;;;;;;;15.64;93.05;97827.00;4155108;28;20680;-85
2023/05/22 04:38:14;;;;;;;353.80;40.40;;;;;;;15.63;91.64;97822.69;4166960;28;20751;-85
2023/05/22 04:40:18;;;;;;;376.43;40.30;;;;;;;15.60;92.00;97822.97;4193866;28;20642;-85
2023/05/22 04:42:22;;;;;;;356.17;37.73;;;;;;;15.56;91.53;97834.78;4165116;28;20760;-90
2023/05/22 04:44:26;;;;;;;351.80;36.97;;;;;;;15.55;91.78;97819.94;4170052;28;20637;-85
2023/05/22 04:46:29;;;;;;;354.63;43.33;;;;;;;15.51;94.09;97824.81;4170658;28;20634;-84
2023/05/22 04:48:32;;;;;;;354.67;48.30;;;;;;;15.55;94.10;97824.41;4159414;28;20705;-85
2023/05/22 04:50:37;;;;;;;387.93;46.27;;;;;;;15.58;94.40;97837.25;4166284;28;20630;-84
2023/05/22 04:52:41;;;;;;;354.47;39.23;;;;;;;15.60;94.37;97836.13;4171650;28;21047;-84
2023/05/22 04:54:45;;;;;;;351.70;36.70;;;;;;;15.60;92.97;97830.88;4168443;28;20634;-84
2023/05/22 04:56:48;;;;;;;360.20;35.33;;;;;;;15.63;93.78;97830.59;4193408;28;20643;-84
2023/05/22 04:58:52;;;;;;;378.43;43.70;;;;;;;15.68;95.66;97833.63;4164881;28;20647;-84
2023/05/22 05:00:58;;;;;;;387.13;32.30;;;;;;;15.73;94.73;97835.84;4149196;28;20638;-84
2023/05/22 05:03:03;;;;;;;392.17;44.27;;;;;;;15.78;96.24;97838.88;4157322;28;20667;-84
2023/05/22 05:05:07;;;;;;;353.23;40.50;;;;;;;15.83;95.55;97836.63;4155944;28;24181;-84
2023/05/22 05:07:16;;;;;;;354.53;37.87;;;;;;;15.88;94.47;97840.50;4141995;28;20638;-85
2023/05/22 05:09:19;;;;;;;353.00;39.87;;;;;;;15.94;96.07;97845.19;4148715;28;20649;-84
2023/05/22 05:11:22;;;;;;;384.17;40.07;;;;;;;16.02;96.66;97842.66;4155085;28;20642;-82
2023/05/22 05:13:26;;;;;;;351.60;38.60;;;;;;;16.10;94.31;97845.38;4175961;28;21297;-83
2023/05/22 05:15:29;;;;;;;318.00;38.47;;;;;;;16.14;95.89;97844.13;4153895;28;20658;-83
2023/05/22 05:17:32;;;;;;;304.33;40.37;;;;;;;16.19;95.12;97853.28;4172638;28;20666;-83
2023/05/22 05:19:37;;;;;;;356.30;40.07;;;;;;;16.24;93.79;97843.16;4168789;28;20654;-83
2023/05/22 05:21:40;;;;;;;351.17;41.03;;;;;;;16.30;94.03;97853.09;4171984;28;20632;-83
2023/05/22 05:23:44;;;;;;;352.30;43.47;;;;;;;16.40;95.59;97860.94;4171582;28;20663;-83
2023/05/22 05:25:48;;;;;;;352.47;41.27;;;;;;;16.50;93.64;97859.13;4173744;28;21072;-83
2023/05/22 05:27:51;;;;;;;352.03;45.80;;;;;;;16.62;93.30;97862.22;4157052;28;20640;-83
2023/05/22 05:29:56;;;;;;;351.73;40.90;;;;;;;16.73;95.02;97862.03;4170227;28;20699;-84
2023/05/22 05:32:13;;;;;;;351.00;42.03;;;;;;;16.87;93.92;97858.88;4180450;28;20661;-84
2023/05/22 05:34:28;;;;;;;351.37;45.27;;;;;;;16.99;93.71;97866.41;4160610;28;21176;-84
2023/05/22 05:36:37;;;;;;;382.20;45.90;;;;;;;17.09;92.64;97863.69;4193570;28;21102;-84
2023/05/22 05:38:40;;;;;;;358.77;40.00;;;;;;;17.30;92.50;97877.44;4175185;28;20624;-84
2023/05/22 05:40:45;;;;;;;351.37;39.97;;;;;;;17.51;91.22;97865.59;4173091;28;21226;-84
2023/05/22 05:42:49;;;;;;;353.37;43.37;;;;;;;17.69;90.20;97874.31;4157613;28;20693;-84
2023/05/22 05:44:57;;;;;;;352.87;36.40;;;;;;;17.82;89.57;97869.47;4154670;28;20984;-84
2023/05/22 05:47:02;;;;;;;351.80;40.27;;;;;;;18.05;89.42;97872.25;4149256;28;20639;-84
2023/05/22 05:49:08;;;;;;;353.60;36.47;;;;;;;18.31;89.08;97873.13;4175675;28;20720;-84
2023/05/22 05:51:13;;;;;;;350.37;39.07;;;;;;;18.58;89.00;97878.16;4172772;28;20626;-84
2023/05/22 05:53:17;;;;;;;349.90;37.33;;;;;;;18.82;88.19;97878.28;4173134;28;21472;-83
2023/05/22 05:55:29;;;;;;;351.47;34.97;;;;;;;19.05;86.61;97872.28;4151321;28;20720;-84
2023/05/22 05:57:35;;;;;;;352.37;36.90;;;;;;;19.25;86.67;97882.38;4155869;28;20653;-84
2023/05/22 05:59:42;;;;;;;352.03;37.13;;;;;;;19.49;84.95;97883.22;4162676;28;20616;-84
2023/05/22 06:02:01;;;;;;;351.27;39.57;;;;;;;19.72;85.43;97884.22;4169392;28;20628;-84
2023/05/22 06:04:08;;;;;;;350.10;35.47;;;;;;;19.91;83.86;97884.72;4180260;28;20636;-84
2023/05/22 06:06:14;;;;;;;351.03;34.90;;;;;;;20.15;84.47;97889.19;4150702;28;21287;-84
2023/05/22 06:08:37;;;;;;;351.10;35.33;;;;;;;20.31;81.81;97883.84;4162332;28;20634;-84
2023/05/22 06:10:40;;;;;;;352.47;33.87;;;;;;;20.42;82.40;97882.47;4157958;28;20686;-84
2023/05/22 06:13:06;;;;;;;351.77;42.27;;;;;;;20.60;81.48;97885.72;4168903;28;20634;-84
2023/05/22 06:15:11;;;;;;;347.97;33.47;;;;;;;20.86;83.49;97894.28;4176461;28;20636;-84
2023/05/22 06:17:15;;;;;;;275.33;31.83;;;;;;;21.13;81.08;97891.16;4177799;28;20680;-84
2023/05/22 06:19:19;;;;;;;349.73;31.13;;;;;;;21.36;81.12;97896.31;4175586;28;20633;-83
2023/05/22 06:21:23;;;;;;;350.83;32.40;;;;;;;21.58;79.60;97892.03;4177639;28;21215;-84
2023/05/22 06:23:26;;;;;;;247.60;29.50;;;;;;;21.79;78.75;97893.03;4175655;28;20709;-84
2023/05/22 06:25:30;;;;;;;278.67;32.47;;;;;;;21.96;78.47;97895.34;4163664;28;21279;-84
2023/05/22 06:27:33;;;;;;;351.80;31.70;;;;;;;22.14;79.41;97895.03;4176806;28;20681;-84
2023/05/22 06:29:38;;;;;;;349.60;30.97;;;;;;;22.34;79.07;97899.66;4163045;28;20674;-84
2023/05/22 06:31:42;;;;;;;329.43;32.53;;;;;;;22.50;77.63;97892.34;4174625;28;20632;-84
2023/05/22 06:33:46;;;;;;;224.90;28.47;;;;;;;22.68;77.50;97898.13;4188295;28;21228;-84
2023/05/22 06:35:49;;;;;;;292.47;34.97;;;;;;;22.84;78.99;97887.31;4172742;28;20632;-84
2023/05/22 06:37:53;;;;;;;349.80;36.67;;;;;;;22.99;76.64;97891.63;4173432;28;21188;-84
2023/05/22 06:39:56;;;;;;;349.43;33.77;;;;;;;23.08;75.71;97885.19;4155251;28;20633;-84
2023/05/22 06:42:06;;;;;;;349.33;30.03;;;;;;;23.26;75.42;97890.91;4172630;28;20631;-84
2023/05/22 06:44:28;;;;;;;320.27;32.73;;;;;;;23.46;75.48;97892.75;4170609;28;20701;-84
2023/05/22 06:46:33;;;;;;;349.30;28.53;;;;;;;23.66;75.65;97893.00;4162499;28;20664;-84
2023/05/22 06:48:39;;;;;;;300.93;33.43;;;;;;;23.78;75.23;97889.63;4173889;28;20639;-83
2023/05/22 06:50:50;;;;;;;311.53;28.70;;;;;;;24.02;73.75;97891.88;4160465;28;20723;-84
2023/05/22 06:52:54;;;;;;;283.07;30.97;;;;;;;24.13;73.26;97894.03;4172691;28;20678;-84
2023/05/22 06:55:03;;;;;;;336.73;31.80;;;;;;;24.28;72.91;97887.56;4171685;28;21235;-84
2023/05/22 06:57:08;;;;;;;310.87;35.13;;;;;;;24.47;73.22;97887.75;4168411;28;21010;-84
2023/05/22 06:59:12;;;;;;;269.30;27.50;;;;;;;24.61;74.31;97896.66;4176563;28;20973;-83
2023/05/22 07:01:35;;;;;;;253.60;32.07;;;;;;;24.81;71.72;97893.91;4190097;28;20633;-84
2023/05/22 07:03:44;;;;;;;267.83;29.20;;;;;;;24.96;71.08;97893.75;4160591;28;21001;-84
2023/05/22 07:06:23;;;;;;;319.27;29.50;;;;;;;25.17;71.07;97898.00;4163750;28;20675;-84
2023/05/22 07:08:26;;;;;;;264.57;30.90;;;;;;;25.24;71.82;97893.50;4168228;28;21195;-84
2023/05/22 07:10:32;;;;;;;239.77;30.93;;;;;;;25.35;72.77;97900.09;4178698;28;20915;-84
2023/05/22 07:12:36;;;;;;;350.37;30.53;;;;;;;25.42;70.82;97899.09;4162387;28;20739;-84
2023/05/22 07:14:39;;;;;;;328.07;30.83;;;;;;;25.53;70.85;97903.03;4176411;28;20706;-84
2023/05/22 07:16:44;;;;;;;251.93;33.63;;;;;;;25.58;69.45;97900.59;4153641;28;20657;-88
2023/05/22 07:18:49;;;;;;;250.53;29.77;;;;;;;25.69;70.59;97900.84;4159998;28;20727;-84
2023/05/22 07:20:55;;;;;;;261.90;33.73;;;;;;;25.78;71.07;97896.94;4174911;28;20647;-84
2023/05/22 07:22:58;;;;;;;231.67;29.20;;;;;;;25.93;70.92;97895.72;4160948;28;20656;-84
2023/05/22 07:25:02;;;;;;;204.63;30.37;;;;;;;26.10;69.15;97897.00;4160344;28;21100;-84
2023/05/22 07:27:07;;;;;;;318.93;31.90;;;;;;;26.29;71.05;97905.00;4153666;28;21298;-84
2023/05/22 07:29:12;;;;;;;322.03;27.47;;;;;;;26.40;70.89;97899.06;4170588;28;20671;-84
2023/05/22 07:31:16;;;;;;;204.83;23.50;;;;;;;26.49;69.16;97905.00;4173939;28;20656;-84
2023/05/22 07:33:23;;;;;;;305.50;30.53;;;;;;;26.57;70.61;97901.06;4167248;28;20694;-85
2023/05/22 07:35:27;;;;;;;230.87;29.27;;;;;;;26.68;69.56;97905.78;4191751;28;20632;-85
2023/05/22 07:37:31;;;;;;;285.50;29.73;;;;;;;26.80;70.31;97905.97;4151441;28;20672;-84
2023/05/22 07:39:34;;;;;;;246.80;29.53;;;;;;;26.95;70.26;97907.38;4142604;28;20641;-84
2023/05/22 07:41:37;;;;;;;219.73;26.93;;;;;;;27.03;66.68;97904.47;4153567;28;20741;-84
2023/05/22 07:43:42;;;;;;;271.33;30.13;;;;;;;27.08;67.41;97897.47;4156135;28;20654;-84
2023/05/22 07:45:48;;;;;;;191.60;30.00;;;;;;;27.16;68.87;97905.25;4142856;28;20644;-84
2023/05/22 07:47:55;;;;;;;283.17;30.63;;;;;;;27.35;71.58;97912.41;4159101;28;20630;-84
2023/05/22 07:50:02;;;;;;;275.43;31.83;;;;;;;27.49;68.25;97905.94;4168220;28;20632;-84
2023/05/22 07:52:07;;;;;;;287.33;27.90;;;;;;;27.51;67.57;97906.56;4161849;28;20625;-84
2023/05/22 07:54:10;;;;;;;253.97;31.40;;;;;;;27.47;68.63;97907.16;4132829;28;20639;-84
2023/05/22 07:56:16;;;;;;;258.50;28.10;;;;;;;27.42;67.45;97909.69;4161087;28;20635;-84
2023/05/22 07:58:22;;;;;;;222.23;31.20;;;;;;;27.46;67.52;97898.31;4169800;28;20613;-84
2023/05/22 08:00:26;;;;;;;263.40;30.20;;;;;;;27.52;68.05;97908.22;4168580;28;21011;-84
2023/05/22 08:02:30;;;;;;;278.40;29.80;;;;;;;27.63;68.93;97902.16;4170676;28;20691;-84
2023/05/22 08:04:34;;;;;;;243.90;30.70;;;;;;;27.61;67.39;97904.25;4171033;28;20657;-84
2023/05/22 08:06:39;;;;;;;316.30;28.77;;;;;;;27.64;66.77;97898.44;4154844;28;20661;-85
2023/05/22 08:08:43;;;;;;;220.57;29.50;;;;;;;27.66;66.47;97901.72;4170752;28;20713;-84
2023/05/22 08:10:47;;;;;;;195.30;31.10;;;;;;;27.63;67.03;97896.78;4162493;28;21013;-84
2023/05/22 08:13:06;;;;;;;344.83;30.37;;;;;;;27.55;67.34;97895.19;4171263;28;20628;-84
2023/05/22 08:15:10;;;;;;;254.53;29.73;;;;;;;27.56;68.00;97896.84;4165809;28;21052;-84
2023/05/22 08:17:14;;;;;;;247.00;30.97;;;;;;;27.53;67.37;97893.78;4173896;28;20695;-84
2023/05/22 08:19:17;;;;;;;285.40;29.93;;;;;;;27.61;67.11;97897.00;4157314;28;20761;-84
2023/05/22 08:21:20;;;;;;;260.73;32.77;;;;;;;27.66;68.07;97894.53;4160406;28;20630;-84
2023/05/22 08:23:25;;;;;;;252.13;27.67;;;;;;;27.74;67.71;97891.59;4167225;28;21178;-84
2023/05/22 08:25:28;;;;;;;274.57;29.40;;;;;;;27.70;67.10;97893.03;4176774;28;20667;-84
2023/05/22 08:27:31;;;;;;;162.13;24.40;;;;;;;27.70;68.76;97894.91;4166517;28;20631;-84
2023/05/22 08:29:35;;;;;;;247.37;28.60;;;;;;;27.76;66.86;97894.03;4165354;28;21233;-84
2023/05/22 08:31:38;;;;;;;209.37;31.87;;;;;;;27.77;68.24;97893.00;4150402;28;21213;-84
2023/05/22 08:33:41;;;;;;;227.17;28.70;;;;;;;27.85;66.66;97892.75;4174237;28;21291;-84
2023/05/22 08:35:44;;;;;;;259.00;33.27;;;;;;;27.91;67.65;97889.19;4169539;28;21121;-84
2023/05/22 08:37:47;;;;;;;182.00;27.33;;;;;;;27.95;68.06;97890.38;4199085;28;20726;-84
2023/05/22 08:39:51;;;;;;;287.73;26.67;;;;;;;27.97;67.55;97886.47;4168246;28;20721;-84
2023/05/22 08:41:55;;;;;;;180.33;30.67;;;;;;;27.98;68.02;97879.22;4168366;28;20652;-84
2023/05/22 08:43:58;;;;;;;251.17;28.87;;;;;;;27.99;67.25;97875.50;4161240;28;20708;-84
2023/05/22 08:46:04;;;;;;;237.20;26.53;;;;;;;27.96;66.95;97879.44;4165963;28;20621;-84
2023/05/22 08:48:11;;;;;;;312.03;27.90;;;;;;;28.05;68.43;97880.81;4160945;28;21368;-84
2023/05/22 08:50:15;;;;;;;348.43;28.53;;;;;;;28.03;67.24;97881.03;4154877;28;20779;-84
2023/05/22 08:52:21;;;;;;;311.27;29.67;;;;;;;28.03;66.29;97874.84;4143328;28;20630;-84
2023/05/22 08:54:26;;;;;;;255.37;29.07;;;;;;;28.10;66.18;97879.16;4160799;28;20632;-84
2023/05/22 08:56:31;;;;;;;308.97;30.67;;;;;;;28.11;67.91;97882.66;4173186;28;20633;-84
2023/05/22 08:58:39;;;;;;;305.77;29.40;;;;;;;28.06;66.99;97877.91;4170649;28;20640;-84
2023/05/22 09:00:42;;;;;;;230.37;29.17;;;;;;;28.10;68.75;97886.38;4170529;28;21055;-84
2023/05/22 09:02:46;;;;;;;323.60;27.33;;;;;;;28.18;68.84;97878.88;4176483;28;20679;-84
2023/05/22 09:04:50;;;;;;;239.90;26.23;;;;;;;28.09;65.83;97874.00;4157790;28;21230;-84
2023/05/22 09:06:53;;;;;;;205.23;25.90;;;;;;;28.03;66.05;97874.84;4166346;28;20674;-84
2023/05/22 09:08:57;;;;;;;230.57;26.60;;;;;;;28.11;67.77;97870.06;4179360;28;21327;-83
2023/05/22 09:11:00;;;;;;;223.93;28.27;;;;;;;28.20;68.25;97870.59;4168384;28;20633;-84
2023/05/22 09:13:06;;;;;;;179.47;27.50;;;;;;;28.30;69.79;97882.50;4170159;28;20645;-84
2023/05/22 09:15:11;;;;;;;275.40;27.40;;;;;;;28.40;69.51;97876.63;4169757;28;20625;-84
2023/05/22 09:17:15;;;;;;;333.87;31.97;;;;;;;28.53;69.16;97877.31;4169596;28;21221;-84
2023/05/22 09:19:19;;;;;;;275.40;26.93;;;;;;;28.41;66.17;97873.72;4159993;28;20996;-84
2023/05/22 09:21:28;;;;;;;239.30;30.70;;;;;;;28.27;67.61;97866.00;4150025;28;20728;-84
2023/05/22 09:23:32;;;;;;;230.17;30.47;;;;;;;28.29;66.58;97870.09;4154637;28;20740;-84
2023/05/22 09:25:36;;;;;;;252.83;26.53;;;;;;;28.33;66.02;97870.50;4154237;28;20688;-84
2023/05/22 09:27:39;;;;;;;254.33;33.13;;;;;;;28.41;68.86;97873.72;4173038;28;20664;-84
2023/05/22 09:29:52;;;;;;;252.00;28.53;;;;;;;28.44;67.30;97870.59;4183016;28;21070;-84